CheckWX is a tool to help pilots better visualize weather data.  It is not intended as a substitute for an official pre-flight weather briefing.

08:36:23 UTC

KFYM METAR
Fayetteville Municipal Airport
Fayetteville, Tennessee, USA
Current

21 mins ago

KFYM 120815Z AUTO 05007KT 10SM CLR 00/M03 A3047 RMK A01
Observed
Dec-12 @ 08:15 UTC
Wind
  • 050° at 7 KTS
Visibility
10 SM
Flight Rules
VFR
Cloud Levels
  • Clear skies
Temperature
C / 32°F
Dewpoint
-3°C / 27°F
Humidity
80%
Altimeter
30.47" Hg
Pressure
1031.82 hPa
Previous

41 mins ago

KFYM 120755Z AUTO 04006KT 10SM CLR 00/M03 A3047 RMK A01
Observed
Dec-12 @ 07:55 UTC
Wind
  • 040° at 6 KTS
Visibility
10 SM
Flight Rules
VFR
Cloud Levels
  • Clear skies
Temperature
C / 32°F
Dewpoint
-3°C / 27°F
Humidity
80%
Altimeter
30.47" Hg
Pressure
1031.82 hPa
Previous

1 hour ago

KFYM 120735Z AUTO 04006KT 10SM CLR 00/M02 A3047 RMK A01
Observed
Dec-12 @ 07:35 UTC
Wind
  • 040° at 6 KTS
Visibility
10 SM
Flight Rules
VFR
Cloud Levels
  • Clear skies
Temperature
C / 32°F
Dewpoint
-2°C / 28°F
Humidity
87%
Altimeter
30.47" Hg
Pressure
1031.82 hPa